Weather reports worldwide

Advertisment
Sutton bonington, United Kingdom (99025): temperature & dewpoint: 13.02.2020 11:00:00 - 19.02.2020 11:00:00 (GMT)Sutton bonington, United Kingdom (99025): temperature -20cm & temperature -100cm: 13.02.2020 11:00:00 - 19.02.2020 11:00:00 (GMT)Sutton bonington, United Kingdom (99025): wind speed & gusts: 13.02.2020 11:00:00 - 19.02.2020 11:00:00 (GMT)Sutton bonington, United Kingdom (99025): wind direction: 13.02.2020 11:00:00 - 19.02.2020 11:00:00 (GMT)Sutton bonington, United Kingdom (99025): precipitation: 13.02.2020 11:00:00 - 19.02.2020 11:00:00 (GMT)
Date & Time tt [°C] td [°C] tt -20cm [°C] tt -100cm [°C] ff [km/h] ff [kn] fx [km/h] fx [kn] dd rr [mm]
19.02.2020 11:00:00 5,0 1,6 - - 16 9 - - SW 0,0
19.02.2020 10:00:00 4,8 1,1 - - 13 7 - - WSW 0,0
19.02.2020 09:00:00 3,9 0,8 6,0 6,7 9 5 - - SSW 0,0
19.02.2020 08:00:00 3,2 0,3 - - 11 6 - - WSW 0,0
19.02.2020 07:00:00 3,1 -0,1 - - 13 7 - - WSW 0,0
19.02.2020 06:00:00 2,5 -0,5 - - 4 2 - - SSE 0,0
19.02.2020 05:00:00 3,7 -0,4 - - 15 8 - - W -
19.02.2020 04:00:00 3,6 -0,1 - - 16 9 - - W 0,0
19.02.2020 03:00:00 3,8 0,1 - - 18 10 - - W 0,0
19.02.2020 02:00:00 4,3 -0,1 - - 24 13 - - W 0,0
19.02.2020 01:00:00 3,6 0,3 - - 18 10 - - WSW 0,0
19.02.2020 00:00:00 4,4 0,6 - - 24 13 - - W 0,0
18.02.2020 23:00:00 4,7 0,8 - - 26 14 - - W 0,2
18.02.2020 22:00:00 4,5 1,5 - - 22 12 - - W 0,0
18.02.2020 21:00:00 4,0 1,5 - - 18 10 50 27 W 0,2
18.02.2020 20:00:00 5,5 2,3 - - 21 11 52 28 W 0,2
18.02.2020 19:00:00 6,4 3,3 - - 15 8 - - WSW 0,0
18.02.2020 18:00:00 6,7 4,1 - - 16 9 - - WSW 1,0
18.02.2020 17:00:00 6,4 4,1 - - 18 10 48 26 W 0,0
18.02.2020 16:00:00 8,1 4,9 - - 26 14 46 25 SW 0,4
18.02.2020 15:00:00 9,1 4,1 - - 18 10 54 29 SW 0,0
18.02.2020 14:00:00 9,2 3,9 - - 24 13 55 30 WSW 0,0
18.02.2020 13:00:00 9,1 3,8 - - 24 13 54 29 WSW 0,0
18.02.2020 12:00:00 8,6 4,4 - - 22 12 52 28 SW 0,0
18.02.2020 11:00:00 7,8 3,6 - - 29 16 54 29 SW 0,0
18.02.2020 10:00:00 6,6 2,2 - - 22 12 - - SW -
18.02.2020 09:00:00 5,5 1,5 6,2 6,7 21 11 - - SW 0,0
18.02.2020 08:00:00 4,8 1,1 - - 21 11 - - SW -
18.02.2020 07:00:00 4,3 0,8 - - 16 9 - - SW 0,0
18.02.2020 06:00:00 3,8 0,8 - - 16 9 - - SW 0,0
18.02.2020 05:00:00 4,2 0,9 - - 15 8 - - SW -
18.02.2020 04:00:00 3,9 0,7 - - 13 7 - - SW 0,0
18.02.2020 03:00:00 4,1 0,4 - - 11 6 - - SW -
18.02.2020 02:00:00 4,4 0,1 - - 15 8 - - WSW -
18.02.2020 01:00:00 4,7 0,2 - - 16 9 - - SW 0,0
18.02.2020 00:00:00 4,7 0,2 - - 18 10 - - SW -
17.02.2020 23:00:00 5,1 -0,2 - - 22 12 - - WSW 0,0
17.02.2020 22:00:00 5,3 0,7 - - 22 12 - - WSW 0,0
17.02.2020 21:00:00 5,6 -0,2 - - 21 11 46 25 WSW 0,0
17.02.2020 20:00:00 6,0 0,4 - - 21 11 - - WSW 0,0
17.02.2020 19:00:00 6,3 2,2 - - 22 12 50 27 WSW 0,2
17.02.2020 18:00:00 8,1 2,5 - - 18 10 - - W 0,0
17.02.2020 17:00:00 8,6 2,5 - - 18 10 48 26 WSW 0,0
17.02.2020 16:00:00 9,4 2,9 - - 24 13 46 25 W 0,0
17.02.2020 15:00:00 10,1 3,5 - - 29 16 54 29 W 0,0
17.02.2020 14:00:00 10,0 3,2 - - 26 14 - - W 0,0
17.02.2020 13:00:00 9,5 4,3 - - 21 11 - - WSW 0,0
17.02.2020 12:00:00 8,8 4,5 - - 18 10 - - SW 0,0
17.02.2020 11:00:00 7,5 3,8 - - 22 12 48 26 SW 0,0
17.02.2020 10:00:00 6,7 2,8 - - 24 13 54 29 SW 0,0
17.02.2020 09:00:00 5,9 1,8 6,7 6,7 22 12 48 26 SSW 0,0
17.02.2020 08:00:00 5,1 1,5 - - 16 9 - - SSW 0,0
17.02.2020 07:00:00 5,0 1,2 - - 21 11 - - SSW 0,0
17.02.2020 06:00:00 5,7 1,6 - - 28 15 - - SW 0,0
17.02.2020 05:00:00 4,9 2,1 - - 21 11 70 38 SW 0,0
17.02.2020 04:00:00 6,4 1,0 - - 28 15 59 32 SW 0,0
17.02.2020 03:00:00 5,2 1,7 - - 18 10 68 37 SSW 0,0
17.02.2020 02:00:00 4,6 2,1 - - 34 18 65 35 SW 0,2
17.02.2020 01:00:00 6,3 0,6 - - 29 16 57 31 SW 0,0
17.02.2020 00:00:00 5,7 1,2 - - 22 12 57 31 SW 0,0
16.02.2020 23:00:00 5,3 0,6 - - 28 15 59 32 SW 0,0
16.02.2020 22:00:00 5,3 1,5 - - 26 14 50 27 SW 0,0
16.02.2020 21:00:00 4,8 1,8 - - 24 13 67 36 SW 0,0
16.02.2020 20:00:00 7,7 0,7 - - 24 13 50 27 SW 0,0
16.02.2020 19:00:00 7,7 1,3 - - 26 14 61 33 SW 0,0
16.02.2020 18:00:00 7,6 2,9 - - 21 11 - - SSW 0,0
16.02.2020 17:00:00 7,0 3,6 - - 15 8 - - SW 0,2
16.02.2020 16:00:00 5,6 2,7 - - 26 14 61 33 W 0,0
16.02.2020 15:00:00 7,7 3,4 - - 29 16 54 29 SW 0,0
16.02.2020 14:00:00 6,4 4,7 - - 22 12 59 32 WSW 1,4
16.02.2020 13:00:00 7,4 5,3 - - 16 9 - - SSW 0,4
16.02.2020 12:00:00 7,2 5,6 - - 15 8 - - SW 1,6
16.02.2020 11:00:00 7,1 6,1 - - 16 9 - - W 4,4
16.02.2020 10:00:00 7,8 6,2 - - 15 8 68 37 WSW 1,0
16.02.2020 09:00:00 9,1 5,0 7,2 6,2 28 15 46 25 SW 0,0
16.02.2020 08:00:00 7,9 6,3 - - 15 8 48 26 SW 0,8
16.02.2020 07:00:00 7,9 5,8 - - 29 16 83 45 W 0,8
16.02.2020 06:00:00 9,6 6,7 - - 35 19 63 34 WSW 1,4
16.02.2020 05:00:00 9,4 7,9 - - 22 12 - - WSW 2,2
16.02.2020 04:00:00 9,7 8,9 - - 16 9 - - WSW 3,6
16.02.2020 03:00:00 9,3 8,9 - - 24 13 48 26 W 14,6
16.02.2020 02:00:00 13,1 11,7 - - 28 15 72 39 SW 1,2
16.02.2020 01:00:00 12,9 11,5 - - 31 17 61 33 SSW 3,0
16.02.2020 00:00:00 12,4 11,2 - - 29 16 55 30 S 3,2
15.02.2020 23:00:00 12,8 10,7 - - 31 17 59 32 SSW 1,2
15.02.2020 22:00:00 12,7 10,6 - - 22 12 61 33 SSW 0,6
15.02.2020 21:00:00 13,8 10,4 - - 34 18 67 36 SW 0,0
15.02.2020 20:00:00 13,5 10,5 - - 34 18 74 40 SSW 0,0
15.02.2020 19:00:00 13,5 10,1 - - 39 21 80 43 SSW 0,0
15.02.2020 18:00:00 13,1 10,1 - - 35 19 72 39 SSW 0,0
15.02.2020 17:00:00 12,2 10,4 - - 31 17 67 36 S 0,0
15.02.2020 16:00:00 12,2 9,2 - - 35 19 65 35 S 0,6
15.02.2020 15:00:00 12,1 10,0 - - 29 16 67 36 SSW 0,4
15.02.2020 14:00:00 11,8 9,9 - - 29 16 59 32 SSW 0,4
15.02.2020 13:00:00 12,3 9,7 - - 28 15 70 38 S 0,2
15.02.2020 12:00:00 11,8 10,0 - - 29 16 63 34 S 0,0
15.02.2020 11:00:00 12,0 9,8 - - 29 16 61 33 S 0,0
15.02.2020 10:00:00 12,1 10,2 - - 26 14 55 30 S 1,0
15.02.2020 09:00:00 11,5 10,3 5,9 6,0 26 14 46 25 S 0,4
15.02.2020 08:00:00 11,7 9,9 - - 24 13 - - S 0,0
15.02.2020 07:00:00 10,7 10,0 - - 15 8 - - S 0,0
15.02.2020 06:00:00 8,6 8,2 - - 13 7 - - SSE 0,0
15.02.2020 05:00:00 9,0 7,7 - - 11 6 - - S 0,0
15.02.2020 04:00:00 8,9 7,7 - - 15 8 - - S 0,0
15.02.2020 03:00:00 8,7 7,7 - - 13 7 - - S 0,0
15.02.2020 02:00:00 9,0 7,9 - - 8 4 - - SSW 0,0
15.02.2020 01:00:00 9,4 8,1 - - 9 5 - - S 0,2
15.02.2020 00:00:00 9,6 8,6 - - 9 5 - - S 0,2
14.02.2020 23:00:00 10,0 9,0 - - 8 4 - - SSW 0,0
14.02.2020 22:00:00 10,0 9,0 - - 8 4 - - S 0,0
14.02.2020 21:00:00 10,3 9,2 - - 11 6 - - SW 0,0
14.02.2020 20:00:00 10,5 9,3 - - 11 6 - - SSW 0,2
14.02.2020 19:00:00 10,5 9,1 - - 13 7 - - SSW 0,0
14.02.2020 18:00:00 10,6 8,8 - - 15 8 - - SSW 0,2
14.02.2020 17:00:00 10,3 8,5 - - 13 7 - - SSW 0,0
14.02.2020 16:00:00 11,0 7,5 - - 22 12 52 28 SSW 0,0
14.02.2020 15:00:00 11,2 6,9 - - 26 14 52 28 SSW 0,0
14.02.2020 14:00:00 10,5 6,3 - - 22 12 - - S 0,0
14.02.2020 13:00:00 9,1 5,2 - - 16 9 - - SSW 0,0
14.02.2020 12:00:00 7,9 4,8 - - 18 10 - - SSW 0,0
14.02.2020 11:00:00 6,7 4,2 - - 16 9 - - S 0,0
14.02.2020 10:00:00 5,6 3,2 - - 16 9 - - S 0,0
14.02.2020 09:00:00 3,9 2,1 5,2 6,0 13 7 - - SSE 0,0
14.02.2020 08:00:00 2,7 1,9 - - 13 7 - - SSE 0,0
14.02.2020 07:00:00 2,3 1,9 - - 8 4 - - SSE 0,0
14.02.2020 06:00:00 2,0 1,6 - - 9 5 - - SSE 0,0
14.02.2020 05:00:00 1,4 1,2 - - 8 4 - - SSE 0,0
14.02.2020 04:00:00 1,4 0,7 - - 2 1 - - S 0,0
14.02.2020 03:00:00 2,1 1,8 - - 5 3 - - SSW 0,0
14.02.2020 02:00:00 2,1 1,2 - - 5 3 - - SSW 0,0
14.02.2020 01:00:00 2,5 1,5 - - 8 4 - - SW 0,0
14.02.2020 00:00:00 3,2 1,0 - - 4 2 - - NW 0,0
13.02.2020 23:00:00 4,2 1,9 - - 8 4 - - WSW 0,0
13.02.2020 22:00:00 4,3 1,8 - - 5 3 - - W 0,0
13.02.2020 21:00:00 5,5 2,3 - - 8 4 - - NNW 0,0
13.02.2020 20:00:00 6,3 4,3 - - 11 6 - - NNW 0,0
13.02.2020 19:00:00 6,4 4,2 - - 16 9 - - WNW 0,0
13.02.2020 18:00:00 7,1 3,9 - - 22 12 - - W 0,0
13.02.2020 17:00:00 7,5 4,1 - - 21 11 - - WNW 0,0
13.02.2020 16:00:00 7,9 3,9 - - 16 9 - - NW 0,0
13.02.2020 15:00:00 8,7 4,0 - - 22 12 - - WNW 0,0
13.02.2020 14:00:00 7,5 4,9 - - 16 9 - - NW 0,0
13.02.2020 13:00:00 8,3 4,7 - - 16 9 - - W 0,0
13.02.2020 12:00:00 7,7 4,9 - - 11 6 - - WSW 0,0
13.02.2020 11:00:00 7,1 4,5 - - 16 9 - - SSW 0,0

tt = temperature
td = dewpoint
tt -20cm = temperature -20cm
tt -100cm = temperature -100cm
ff = wind speed
fx = gusts
dd = wind direction
rr = precipitation

Next stations